createdAt,value
2018-03-28T00:00:29.095Z,23.30
2018-03-28T00:02:57.389Z,23.83
2018-03-28T00:05:26.498Z,24.67
2018-03-28T00:07:55.574Z,24.13
2018-03-28T00:10:24.642Z,26.00
2018-03-28T00:12:52.977Z,27.83
2018-03-28T00:15:21.295Z,25.90
2018-03-28T00:17:49.804Z,25.03
2018-03-28T00:20:18.102Z,21.73
2018-03-28T00:22:46.439Z,23.43
2018-03-28T00:25:14.730Z,22.80
2018-03-28T00:30:18.531Z,25.67
2018-03-28T00:32:47.660Z,24.47
2018-03-28T00:35:16.339Z,23.37
2018-03-28T00:37:45.426Z,22.47
2018-03-28T00:40:14.523Z,20.80
2018-03-28T00:42:42.838Z,20.30
2018-03-28T00:45:11.172Z,22.87
2018-03-28T00:47:39.481Z,24.13
2018-03-28T00:50:07.819Z,22.47
2018-03-28T00:52:36.114Z,20.50
2018-03-28T00:55:04.450Z,21.20
2018-03-28T00:57:33.694Z,20.03
2018-03-28T01:00:02.043Z,19.97
2018-03-28T01:02:30.356Z,19.13
2018-03-28T01:04:58.673Z,22.37
2018-03-28T01:07:27.002Z,21.03
2018-03-28T01:09:55.316Z,22.10
2018-03-28T01:15:23.190Z,22.43
2018-03-28T01:17:51.637Z,19.53
2018-03-28T01:20:20.967Z,22.17
2018-03-28T01:22:49.319Z,22.77
2018-03-28T01:25:17.626Z,21.50
2018-03-28T01:27:46.146Z,20.77
2018-03-28T01:30:14.463Z,25.40
2018-03-28T01:32:43.558Z,21.83
2018-03-28T01:35:11.883Z,20.93
2018-03-28T01:37:40.253Z,22.63
2018-03-28T01:40:08.878Z,22.03
2018-03-28T01:42:37.221Z,18.93
2018-03-28T01:45:05.522Z,22.90
2018-03-28T01:47:34.661Z,24.10
2018-03-28T01:50:02.974Z,24.27
2018-03-28T01:52:32.359Z,19.90
2018-03-28T01:55:00.727Z,21.47
2018-03-28T01:57:29.034Z,21.80
2018-03-28T01:59:57.370Z,21.17
2018-03-28T02:02:25.684Z,23.27
2018-03-28T02:04:54.031Z,22.90
2018-03-28T02:07:22.343Z,23.27
2018-03-28T02:09:50.690Z,22.27
2018-03-28T02:12:18.990Z,21.10
2018-03-28T02:14:47.326Z,22.73
2018-03-28T02:17:15.642Z,23.67
2018-03-28T02:19:44.073Z,21.20
2018-03-28T02:22:12.406Z,20.70
2018-03-28T02:24:41.522Z,21.87
2018-03-28T02:27:10.599Z,23.67
2018-03-28T02:29:39.710Z,22.53
2018-03-28T02:32:08.791Z,24.50
2018-03-28T02:34:37.395Z,24.47
2018-03-28T02:37:06.466Z,24.90
2018-03-28T02:39:34.816Z,22.97
2018-03-28T02:42:03.106Z,22.40
2018-03-28T02:44:31.434Z,22.20
2018-03-28T02:46:59.738Z,22.20
2018-03-28T02:49:28.111Z,24.57
2018-03-28T02:51:56.482Z,24.07
2018-03-28T02:54:24.799Z,21.20
2018-03-28T02:56:53.930Z,25.20
2018-03-28T02:59:22.243Z,24.53
2018-03-28T03:01:50.608Z,24.67
2018-03-28T03:04:18.905Z,29.50
2018-03-28T03:06:47.242Z,27.77
2018-03-28T03:09:15.569Z,25.13
2018-03-28T03:11:43.911Z,24.60
2018-03-28T03:14:12.197Z,25.70
2018-03-28T03:16:40.530Z,25.57
2018-03-28T03:19:09.598Z,26.10
2018-03-28T03:21:37.949Z,26.90
2018-03-28T03:24:06.250Z,23.93
2018-03-28T03:26:34.657Z,25.90
2018-03-28T03:29:03.726Z,24.77
2018-03-28T03:31:33.575Z,23.37
2018-03-28T03:34:01.887Z,27.53
2018-03-28T03:36:30.223Z,24.33
2018-03-28T03:38:58.558Z,26.73
2018-03-28T03:41:26.895Z,23.50
2018-03-28T03:43:55.247Z,26.17
2018-03-28T03:46:24.362Z,24.60
2018-03-28T03:48:52.669Z,24.27
2018-03-28T03:51:21.027Z,24.27
2018-03-28T03:53:49.338Z,25.20
2018-03-28T03:56:17.652Z,27.87
2018-03-28T03:58:46.792Z,26.20
2018-03-28T04:01:15.106Z,28.47
2018-03-28T04:03:43.442Z,25.47
2018-03-28T04:06:11.777Z,28.07
2018-03-28T04:08:40.887Z,25.87
2018-03-28T04:11:09.194Z,27.37
2018-03-28T04:13:37.539Z,23.83
2018-03-28T04:16:05.853Z,25.73
2018-03-28T04:18:34.983Z,27.70
2018-03-28T04:21:03.285Z,29.30
2018-03-28T04:23:31.663Z,25.30
2018-03-28T04:25:59.976Z,26.70
2018-03-28T04:28:28.318Z,26.30
2018-03-28T04:30:56.642Z,28.23
2018-03-28T04:33:25.305Z,27.03
2018-03-28T04:35:53.619Z,27.43
2018-03-28T04:38:22.741Z,29.37
2018-03-28T04:40:51.819Z,28.03
2018-03-28T04:43:20.154Z,30.43
2018-03-28T04:45:48.479Z,26.83
2018-03-28T04:48:16.803Z,29.77
2018-03-28T04:50:45.126Z,29.30
2018-03-28T04:53:13.473Z,30.50
2018-03-28T04:55:41.804Z,35.13
2018-03-28T04:58:10.118Z,28.80
2018-03-28T05:00:38.528Z,33.37
2018-03-28T05:03:06.838Z,31.47
2018-03-28T05:05:35.178Z,31.50
2018-03-28T05:08:03.518Z,31.10
2018-03-28T05:10:31.854Z,30.60
2018-03-28T05:13:00.926Z,31.93
2018-03-28T05:15:29.271Z,29.50
2018-03-28T05:17:57.569Z,31.53
2018-03-28T05:20:25.915Z,29.33
2018-03-28T05:22:54.218Z,33.77
2018-03-28T05:25:22.559Z,30.73
2018-03-28T05:27:50.882Z,28.57
2018-03-28T05:30:19.222Z,26.37
2018-03-28T05:32:47.523Z,28.13
2018-03-28T05:35:15.874Z,27.00
2018-03-28T05:37:44.171Z,29.27
2018-03-28T05:40:12.514Z,26.37
2018-03-28T05:42:40.840Z,29.33
2018-03-28T05:45:09.179Z,30.97
2018-03-28T05:47:37.492Z,31.43
2018-03-28T05:50:05.805Z,31.60
2018-03-28T05:52:34.880Z,29.00
2018-03-28T05:55:04.730Z,37.97
2018-03-28T05:57:33.080Z,30.77
2018-03-28T06:00:01.464Z,34.57
2018-03-28T06:02:29.821Z,30.20
2018-03-28T06:04:58.122Z,31.40
2018-03-28T06:07:26.503Z,31.10
2018-03-28T06:09:55.571Z,31.00
2018-03-28T06:12:24.183Z,29.47
2018-03-28T06:14:52.494Z,30.23
2018-03-28T06:17:21.139Z,32.30
2018-03-28T06:19:50.201Z,35.87
2018-03-28T06:22:18.554Z,29.23
2018-03-28T06:24:46.846Z,32.40
2018-03-28T06:27:15.274Z,29.23
2018-03-28T06:29:43.598Z,31.17
2018-03-28T06:32:11.934Z,29.07
2018-03-28T06:34:40.238Z,29.50
2018-03-28T06:37:08.580Z,30.30
2018-03-28T06:39:37.650Z,29.80
2018-03-28T06:42:05.995Z,30.70
2018-03-28T06:44:34.302Z,30.70
2018-03-28T06:47:02.634Z,30.10
2018-03-28T06:49:30.963Z,28.37
2018-03-28T06:52:00.092Z,30.13
2018-03-28T06:54:28.385Z,27.70
2018-03-28T06:56:57.853Z,32.30
2018-03-28T06:59:26.923Z,31.37
2018-03-28T07:01:55.234Z,30.40
2018-03-28T07:04:23.577Z,32.07
2018-03-28T07:06:52.188Z,32.73
2018-03-28T07:09:20.870Z,32.63
2018-03-28T07:11:49.201Z,31.83
2018-03-28T07:14:17.571Z,31.73
2018-03-28T07:16:45.874Z,30.07
2018-03-28T07:19:14.218Z,33.30
2018-03-28T07:21:42.559Z,31.57
2018-03-28T07:24:10.934Z,32.97
2018-03-28T07:26:39.359Z,34.00
2018-03-28T07:29:07.711Z,31.57
2018-03-28T07:31:36.018Z,37.53
2018-03-28T07:34:04.365Z,32.37
2018-03-28T07:36:32.666Z,33.00
2018-03-28T07:39:01.005Z,32.07
2018-03-28T07:41:29.313Z,33.80
2018-03-28T07:43:57.663Z,31.07
2018-03-28T07:46:26.038Z,32.67
2018-03-28T07:48:54.382Z,33.80
2018-03-28T07:51:22.686Z,33.47
2018-03-28T07:53:51.009Z,32.60
2018-03-28T07:56:19.341Z,34.37
2018-03-28T07:58:47.678Z,32.90
2018-03-28T08:01:16.823Z,35.40
2018-03-28T08:03:45.186Z,32.80
2018-03-28T08:06:13.528Z,33.43
2018-03-28T08:08:41.837Z,35.67
2018-03-28T08:11:10.194Z,34.57
2018-03-28T08:13:39.266Z,37.80
2018-03-28T08:16:07.630Z,38.83
2018-03-28T08:18:35.965Z,33.17
2018-03-28T08:21:04.317Z,35.27
2018-03-28T08:23:32.630Z,37.20
2018-03-28T08:26:00.973Z,33.30
2018-03-28T08:28:29.356Z,36.20
2018-03-28T08:30:57.740Z,40.37
2018-03-28T08:33:26.081Z,36.23
2018-03-28T08:35:54.426Z,39.27
2018-03-28T08:38:22.726Z,34.83
2018-03-28T08:40:51.063Z,36.10
2018-03-28T08:43:20.142Z,36.80
2018-03-28T08:45:49.289Z,37.87
2018-03-28T08:48:17.592Z,36.43
2018-03-28T08:50:46.005Z,39.00
2018-03-28T08:53:15.418Z,38.23
2018-03-28T08:55:43.815Z,37.00
2018-03-28T08:58:12.133Z,35.17
2018-03-28T09:00:41.215Z,36.33
2018-03-28T09:03:09.554Z,35.00
2018-03-28T09:05:37.882Z,33.93
2018-03-28T09:08:07.014Z,35.23
2018-03-28T09:10:35.347Z,33.73
2018-03-28T09:13:04.470Z,33.00
2018-03-28T09:15:33.558Z,35.53
2018-03-28T09:18:01.895Z,36.90
2018-03-28T09:20:30.217Z,34.97
2018-03-28T09:22:59.632Z,36.07
2018-03-28T09:25:27.991Z,34.43
2018-03-28T09:27:56.610Z,35.50
2018-03-28T09:30:25.771Z,36.50
2018-03-28T09:32:54.907Z,37.77
2018-03-28T09:35:23.215Z,35.60
2018-03-28T09:37:51.591Z,37.17
2018-03-28T09:40:19.914Z,33.60
2018-03-28T09:42:48.276Z,33.60
2018-03-28T09:45:16.590Z,35.80
2018-03-28T09:47:44.915Z,32.57
2018-03-28T09:50:13.325Z,34.43
2018-03-28T09:52:42.046Z,33.40
2018-03-28T09:57:45.209Z,37.40
2018-03-28T10:00:29.153Z,33.40
2018-03-28T10:03:03.858Z,33.00
2018-03-28T10:05:38.994Z,31.43
2018-03-28T10:08:07.366Z,31.83
2018-03-28T10:10:35.722Z,33.83
2018-03-28T10:13:04.058Z,34.03
2018-03-28T10:15:33.141Z,33.10
2018-03-28T10:18:02.226Z,31.17
2018-03-28T10:20:30.628Z,33.07
2018-03-28T10:22:59.691Z,33.73
2018-03-28T10:25:28.031Z,32.17
2018-03-28T10:27:56.358Z,32.10
2018-03-28T10:30:24.714Z,33.53
2018-03-28T10:32:53.126Z,30.90
2018-03-28T10:35:21.480Z,33.57
2018-03-28T10:37:50.569Z,29.60
2018-03-28T10:40:18.921Z,33.50
2018-03-28T10:42:47.239Z,30.10
2018-03-28T10:45:16.350Z,33.83
2018-03-28T10:47:44.678Z,36.07
2018-03-28T10:50:13.043Z,32.73
2018-03-28T10:52:41.383Z,30.20
2018-03-28T10:55:10.482Z,30.63
2018-03-28T10:57:38.806Z,30.73
2018-03-28T11:00:08.186Z,31.07
2018-03-28T11:02:36.566Z,34.73
2018-03-28T11:05:04.930Z,28.10
2018-03-28T11:07:33.490Z,31.30
2018-03-28T11:10:01.815Z,28.57
2018-03-28T11:12:30.186Z,33.20
2018-03-28T11:14:58.505Z,32.40
2018-03-28T11:17:26.878Z,38.33
2018-03-28T11:19:55.960Z,30.90
2018-03-28T11:22:24.581Z,31.20
2018-03-28T11:24:53.651Z,32.97
2018-03-28T11:27:21.986Z,29.63
2018-03-28T11:29:50.289Z,28.60
2018-03-28T11:32:18.631Z,31.27
2018-03-28T11:34:46.926Z,28.97
2018-03-28T11:37:15.311Z,26.30
2018-03-28T11:39:43.630Z,29.77
2018-03-28T11:42:14.890Z,33.03
2018-03-28T11:44:43.185Z,35.87
2018-03-28T11:47:11.501Z,32.90
2018-03-28T11:49:39.830Z,31.40
2018-03-28T11:52:08.140Z,41.30
2018-03-28T11:54:36.466Z,30.67
2018-03-28T11:57:04.774Z,29.17
2018-03-28T11:59:33.109Z,30.00
2018-03-28T12:02:02.198Z,32.13
2018-03-28T12:04:30.953Z,33.93
2018-03-28T12:06:59.281Z,35.30
2018-03-28T12:09:27.614Z,30.63
2018-03-28T12:11:55.913Z,33.43
2018-03-28T12:14:25.017Z,34.93
2018-03-28T12:16:54.111Z,32.67
2018-03-28T12:19:23.206Z,32.50
2018-03-28T12:21:52.275Z,31.10
2018-03-28T12:24:20.609Z,32.70
2018-03-28T12:26:48.921Z,35.90
2018-03-28T12:29:17.224Z,35.37
2018-03-28T12:31:46.345Z,33.10
2018-03-28T12:34:14.669Z,33.57
2018-03-28T12:36:42.966Z,37.43
2018-03-28T12:39:12.086Z,37.23
2018-03-28T12:41:40.398Z,36.80
2018-03-28T12:44:08.711Z,41.30
2018-03-28T12:46:37.036Z,45.13
2018-03-28T12:49:05.369Z,58.93
2018-03-28T12:51:33.728Z,58.87
2018-03-28T12:54:02.034Z,38.43
2018-03-28T12:56:31.148Z,46.90
2018-03-28T12:59:00.238Z,41.47
2018-03-28T13:01:29.335Z,47.33
2018-03-28T13:03:57.661Z,44.97
2018-03-28T13:06:25.968Z,43.60
2018-03-28T13:08:54.317Z,40.87
2018-03-28T13:11:22.670Z,46.67
2018-03-28T13:13:51.010Z,46.87
2018-03-28T13:16:19.329Z,42.80
2018-03-28T13:18:47.727Z,42.90
2018-03-28T13:21:16.034Z,42.17
2018-03-28T13:23:44.510Z,39.17
2018-03-28T13:26:12.839Z,40.73
2018-03-28T13:28:41.174Z,39.63
2018-03-28T13:31:10.270Z,37.93
2018-03-28T13:33:38.597Z,40.50
2018-03-28T13:36:07.103Z,43.67
2018-03-28T13:38:35.422Z,41.90
2018-03-28T13:41:03.775Z,42.77
2018-03-28T13:43:32.837Z,44.77
2018-03-28T13:46:01.201Z,42.20
2018-03-28T13:48:29.504Z,43.57
2018-03-28T13:50:57.902Z,40.77
2018-03-28T13:53:26.975Z,40.60
2018-03-28T13:55:55.322Z,44.83
2018-03-28T13:58:23.644Z,40.17
2018-03-28T14:00:52.755Z,44.33
2018-03-28T14:03:21.822Z,40.03
2018-03-28T14:05:50.953Z,43.07
2018-03-28T14:08:19.254Z,40.07
2018-03-28T14:10:47.626Z,37.80
2018-03-28T14:13:16.881Z,39.50
2018-03-28T14:15:46.298Z,38.93
2018-03-28T14:18:15.402Z,39.37
2018-03-28T14:20:44.462Z,42.67
2018-03-28T14:23:13.159Z,39.20
2018-03-28T14:25:41.711Z,39.07
2018-03-28T14:28:10.084Z,37.13
2018-03-28T14:30:38.386Z,41.77
2018-03-28T14:33:07.560Z,43.30
2018-03-28T14:35:35.862Z,38.00
2018-03-28T14:38:04.191Z,40.07
2018-03-28T14:40:32.503Z,45.47
2018-03-28T14:43:00.838Z,44.33
2018-03-28T14:45:29.149Z,41.87
2018-03-28T14:47:57.514Z,39.77
2018-03-28T14:50:25.842Z,39.37
2018-03-28T14:52:54.217Z,42.93
2018-03-28T14:55:23.294Z,40.40
2018-03-28T14:57:51.631Z,39.73
2018-03-28T15:00:19.938Z,42.60
2018-03-28T15:02:49.065Z,43.13
2018-03-28T15:05:17.377Z,40.00
2018-03-28T15:07:45.850Z,43.57
2018-03-28T15:10:14.138Z,42.17
2018-03-28T15:12:42.526Z,43.50
2018-03-28T15:15:10.888Z,44.70
2018-03-28T15:17:39.217Z,43.93
2018-03-28T15:20:07.928Z,46.37
2018-03-28T15:22:36.500Z,46.23
2018-03-28T15:25:04.863Z,43.97
2018-03-28T15:27:33.221Z,45.20
2018-03-28T15:30:02.412Z,47.90
2018-03-28T15:32:30.709Z,43.90
2018-03-28T15:34:59.107Z,43.60
2018-03-28T15:37:28.178Z,41.10
2018-03-28T15:39:56.539Z,43.93
2018-03-28T15:42:24.829Z,43.07
2018-03-28T15:44:53.968Z,41.70
2018-03-28T15:47:22.274Z,45.87
2018-03-28T15:49:50.622Z,41.60
2018-03-28T15:52:18.918Z,41.10
2018-03-28T15:54:47.350Z,38.00
2018-03-28T15:57:16.443Z,41.40
2018-03-28T15:59:45.547Z,38.60
2018-03-28T16:02:14.610Z,40.20
2018-03-28T16:04:42.989Z,44.00
2018-03-28T16:07:11.307Z,42.40
2018-03-28T16:09:39.639Z,38.87
2018-03-28T16:12:07.943Z,40.67
2018-03-28T16:14:37.083Z,41.87
2018-03-28T16:17:05.382Z,39.50
2018-03-28T16:19:33.759Z,37.43
2018-03-28T16:22:02.486Z,38.77
2018-03-28T16:24:31.555Z,43.17
2018-03-28T16:27:00.688Z,42.40
2018-03-28T16:29:29.051Z,41.20
2018-03-28T16:31:57.842Z,43.80
2018-03-28T16:34:26.909Z,43.87
2018-03-28T16:36:55.248Z,40.47
2018-03-28T16:39:23.566Z,40.30
2018-03-28T16:41:51.940Z,41.13
2018-03-28T16:44:21.758Z,40.67
2018-03-28T16:46:50.132Z,37.87
2018-03-28T16:49:18.457Z,37.80
2018-03-28T16:51:46.810Z,37.27
2018-03-28T16:54:15.140Z,39.00
2018-03-28T16:56:43.510Z,41.00
2018-03-28T16:59:11.833Z,40.27
2018-03-28T17:01:40.948Z,38.10
2018-03-28T17:04:09.275Z,40.30
2018-03-28T17:06:38.423Z,38.83
2018-03-28T17:09:06.723Z,39.73
2018-03-28T17:11:35.370Z,44.30
2018-03-28T17:14:03.740Z,42.50
2018-03-28T17:16:32.062Z,40.60
2018-03-28T17:19:00.385Z,38.20
2018-03-28T17:21:29.295Z,38.37
2018-03-28T17:23:57.633Z,39.23
2018-03-28T17:26:25.954Z,40.60
2018-03-28T17:28:54.307Z,41.03
2018-03-28T17:31:23.454Z,41.57
2018-03-28T17:33:51.785Z,42.33
2018-03-28T17:36:20.891Z,36.70
2018-03-28T17:38:49.242Z,37.13
2018-03-28T17:41:17.555Z,37.20
2018-03-28T17:43:45.898Z,41.20
2018-03-28T17:46:15.107Z,37.53
2018-03-28T17:48:44.223Z,38.53
2018-03-28T17:51:12.554Z,35.30
2018-03-28T17:53:41.718Z,37.50
2018-03-28T17:56:10.045Z,31.80
2018-03-28T17:58:39.177Z,35.27
2018-03-28T18:01:07.526Z,42.87
2018-03-28T18:03:35.870Z,34.13
2018-03-28T18:06:05.256Z,39.13
2018-03-28T18:08:33.582Z,37.30
2018-03-28T18:11:02.702Z,35.20
2018-03-28T18:13:31.169Z,31.43
2018-03-28T18:16:00.254Z,27.97
2018-03-28T18:18:29.378Z,32.97
2018-03-28T18:20:57.678Z,32.33
2018-03-28T18:23:26.103Z,29.60
2018-03-28T18:25:54.546Z,30.40
2018-03-28T18:28:22.847Z,30.90
2018-03-28T18:30:51.254Z,29.63
2018-03-28T18:33:20.421Z,31.43
2018-03-28T18:35:48.810Z,29.77
2018-03-28T18:38:17.271Z,34.07
2018-03-28T18:40:45.617Z,33.50
2018-03-28T18:43:13.930Z,30.97
2018-03-28T18:45:42.259Z,29.73
2018-03-28T18:48:10.587Z,27.93
2018-03-28T18:50:38.906Z,29.53
2018-03-28T18:53:07.215Z,30.93
2018-03-28T18:55:35.586Z,32.40
2018-03-28T18:58:03.897Z,29.23
2018-03-28T19:00:32.238Z,29.70
2018-03-28T19:03:00.578Z,30.73
2018-03-28T19:05:29.849Z,32.53
2018-03-28T19:07:59.263Z,35.87
2018-03-28T19:10:27.617Z,31.20
2018-03-28T19:12:55.931Z,25.20
2018-03-28T19:15:25.032Z,25.93
2018-03-28T19:17:54.106Z,27.13
2018-03-28T19:20:22.500Z,26.90
2018-03-28T19:22:51.558Z,26.10
2018-03-28T19:25:19.874Z,26.87
2018-03-28T19:27:48.246Z,28.10
2018-03-28T19:30:17.310Z,25.23
2018-03-28T19:32:45.642Z,25.87
2018-03-28T19:35:13.978Z,28.20
2018-03-28T19:37:43.111Z,26.07
2018-03-28T19:40:11.425Z,25.73
2018-03-28T19:42:39.770Z,24.60
2018-03-28T19:45:08.124Z,28.67
2018-03-28T19:47:36.409Z,24.50
2018-03-28T19:50:04.713Z,24.03
2018-03-28T19:52:33.070Z,26.03
2018-03-28T19:55:01.372Z,24.33
2018-03-28T19:57:29.707Z,23.60
2018-03-28T19:59:58.779Z,23.50
2018-03-28T20:02:27.906Z,22.30
2018-03-28T20:04:56.210Z,25.07
2018-03-28T20:07:24.562Z,23.07
2018-03-28T20:09:52.870Z,23.23
2018-03-28T20:12:22.066Z,24.23
2018-03-28T20:14:50.376Z,23.67
2018-03-28T20:17:18.946Z,24.57
2018-03-28T20:19:48.088Z,23.30
2018-03-28T20:22:17.488Z,22.67
2018-03-28T20:24:45.798Z,23.10
2018-03-28T20:30:12.726Z,24.40
2018-03-28T20:32:41.090Z,25.50
2018-03-28T20:35:09.418Z,27.33
2018-03-28T20:37:37.758Z,21.60
2018-03-28T20:40:06.819Z,23.57
2018-03-28T20:42:35.926Z,23.33
2018-03-28T20:45:05.030Z,24.00
2018-03-28T20:47:33.824Z,23.20
2018-03-28T20:50:02.150Z,23.90
2018-03-28T20:55:21.584Z,22.73
2018-03-28T20:57:50.369Z,25.50
2018-03-28T21:00:20.834Z,22.33
2018-03-28T21:02:50.303Z,24.20
2018-03-28T21:05:19.298Z,25.20
2018-03-28T21:07:47.718Z,28.37
2018-03-28T21:10:16.364Z,27.27
2018-03-28T21:12:49.294Z,26.27
2018-03-28T21:15:20.457Z,26.80
2018-03-28T21:17:49.616Z,36.23
2018-03-28T21:20:23.086Z,29.90
2018-03-28T21:22:51.499Z,28.07
2018-03-28T21:25:22.155Z,27.57
2018-03-28T21:27:51.331Z,27.50
2018-03-28T21:30:22.006Z,29.93
2018-03-28T21:32:51.516Z,27.33
2018-03-28T21:35:22.423Z,32.30
2018-03-28T21:37:50.796Z,30.40
2018-03-28T21:40:22.130Z,35.20
2018-03-28T21:42:51.310Z,29.20
2018-03-28T21:45:19.815Z,31.03
2018-03-28T21:47:48.222Z,29.27
2018-03-28T21:50:24.252Z,33.00
2018-03-28T21:52:52.646Z,34.40
2018-03-28T21:55:26.844Z,34.57
2018-03-28T21:57:59.852Z,32.90
2018-03-28T22:00:32.595Z,32.33
2018-03-28T22:03:01.154Z,34.77
2018-03-28T22:05:31.395Z,34.97
2018-03-28T22:08:04.705Z,31.50
2018-03-28T22:10:39.200Z,32.83
2018-03-28T22:13:09.643Z,35.53
2018-03-28T22:15:43.367Z,33.70
2018-03-28T22:18:11.756Z,35.10
2018-03-28T22:20:44.784Z,33.80
2018-03-28T22:23:13.172Z,34.67
2018-03-28T22:25:46.728Z,36.03
2018-03-28T22:28:15.202Z,34.90
2018-03-28T22:30:48.753Z,32.27
2018-03-28T22:33:17.180Z,33.47
2018-03-28T22:35:49.811Z,34.03
2018-03-28T22:38:18.256Z,33.10
2018-03-28T22:40:51.959Z,32.20
2018-03-28T22:43:24.864Z,34.17
2018-03-28T22:45:57.276Z,35.87
2018-03-28T22:48:26.810Z,34.87
2018-03-28T22:51:00.896Z,33.03
2018-03-28T22:53:35.221Z,35.80
2018-03-28T22:56:09.721Z,36.47
2018-03-28T22:58:43.306Z,38.53
2018-03-28T23:01:18.006Z,35.07
2018-03-28T23:03:47.926Z,36.00
2018-03-28T23:06:20.103Z,35.20
2018-03-28T23:08:49.603Z,36.97
2018-03-28T23:11:18.064Z,35.20
2018-03-28T23:13:50.019Z,35.60
2018-03-28T23:16:23.918Z,36.73
2018-03-28T23:18:52.338Z,35.97
2018-03-28T23:21:22.826Z,33.73
2018-03-28T23:23:53.051Z,38.60
2018-03-28T23:26:27.776Z,34.10
2018-03-28T23:28:56.222Z,33.37
2018-03-28T23:31:24.646Z,35.17
2018-03-28T23:33:55.756Z,32.67
2018-03-28T23:36:28.297Z,27.93
2018-03-28T23:38:57.240Z,28.23
2018-03-28T23:41:25.688Z,19.50
2018-03-28T23:43:57.226Z,21.70
2018-03-28T23:46:31.320Z,18.60
2018-03-28T23:48:59.726Z,18.73
2018-03-28T23:51:32.362Z,18.63
2018-03-28T23:54:01.058Z,17.63
2018-03-28T23:56:32.452Z,18.77
2018-03-28T23:59:02.174Z,19.30
